sensor_id;sensor_type;location;lat;lon;timestamp;P1;durP1;ratioP1;P2;durP2;ratioP2
46439;SDS011;32138;50.966;6.968;2022-12-10T00:00:02;32.13;;;26.13;;
46439;SDS011;32138;50.966;6.968;2022-12-10T00:01:07;38.58;;;27.75;;
46439;SDS011;32138;50.966;6.968;2022-12-10T00:02:17;35.40;;;28.85;;
46439;SDS011;32138;50.966;6.968;2022-12-10T00:03:17;37.53;;;27.05;;
46439;SDS011;32138;50.966;6.968;2022-12-10T00:04:19;34.67;;;26.30;;
46439;SDS011;32138;50.966;6.968;2022-12-10T00:05:20;34.13;;;26.67;;
46439;SDS011;32138;50.966;6.968;2022-12-10T00:06:22;38.08;;;27.63;;
46439;SDS011;32138;50.966;6.968;2022-12-10T00:07:25;36.85;;;27.92;;
46439;SDS011;32138;50.966;6.968;2022-12-10T00:08:26;36.45;;;27.40;;
46439;SDS011;32138;50.966;6.968;2022-12-10T00:09:27;34.30;;;26.67;;
46439;SDS011;32138;50.966;6.968;2022-12-10T00:10:28;35.65;;;27.77;;
46439;SDS011;32138;50.966;6.968;2022-12-10T00:11:28;36.70;;;28.63;;
46439;SDS011;32138;50.966;6.968;2022-12-10T00:12:29;39.17;;;29.42;;
46439;SDS011;32138;50.966;6.968;2022-12-10T00:13:30;36.70;;;27.95;;
46439;SDS011;32138;50.966;6.968;2022-12-10T00:14:33;35.95;;;27.90;;
46439;SDS011;32138;50.966;6.968;2022-12-10T00:15:34;38.83;;;28.15;;
46439;SDS011;32138;50.966;6.968;2022-12-10T00:16:35;34.60;;;26.58;;
46439;SDS011;32138;50.966;6.968;2022-12-10T00:17:37;34.65;;;26.88;;
46439;SDS011;32138;50.966;6.968;2022-12-10T00:18:37;36.42;;;28.00;;
46439;SDS011;32138;50.966;6.968;2022-12-10T00:19:38;35.45;;;26.42;;
46439;SDS011;32138;50.966;6.968;2022-12-10T00:20:39;31.25;;;24.80;;
46439;SDS011;32138;50.966;6.968;2022-12-10T00:21:40;34.67;;;25.67;;
46439;SDS011;32138;50.966;6.968;2022-12-10T00:22:42;34.90;;;27.23;;
46439;SDS011;32138;50.966;6.968;2022-12-10T00:23:43;34.25;;;26.17;;
46439;SDS011;32138;50.966;6.968;2022-12-10T00:24:44;32.40;;;25.25;;
46439;SDS011;32138;50.966;6.968;2022-12-10T00:25:46;36.47;;;27.50;;
46439;SDS011;32138;50.966;6.968;2022-12-10T00:26:46;35.65;;;25.45;;
46439;SDS011;32138;50.966;6.968;2022-12-10T00:27:47;33.13;;;25.70;;
46439;SDS011;32138;50.966;6.968;2022-12-10T00:28:48;35.72;;;26.25;;
46439;SDS011;32138;50.966;6.968;2022-12-10T00:29:50;33.70;;;25.88;;
46439;SDS011;32138;50.966;6.968;2022-12-10T00:30:51;33.42;;;25.42;;
46439;SDS011;32138;50.966;6.968;2022-12-10T00:31:52;35.83;;;26.10;;
46439;SDS011;32138;50.966;6.968;2022-12-10T00:32:52;35.25;;;26.92;;
46439;SDS011;32138;50.966;6.968;2022-12-10T00:33:54;33.28;;;26.55;;
46439;SDS011;32138;50.966;6.968;2022-12-10T00:34:56;36.08;;;27.70;;
46439;SDS011;32138;50.966;6.968;2022-12-10T00:36:04;33.83;;;25.85;;
46439;SDS011;32138;50.966;6.968;2022-12-10T00:37:08;32.88;;;25.20;;
46439;SDS011;32138;50.966;6.968;2022-12-10T00:38:09;36.90;;;26.98;;
46439;SDS011;32138;50.966;6.968;2022-12-10T00:39:11;34.92;;;25.23;;
46439;SDS011;32138;50.966;6.968;2022-12-10T00:40:15;31.15;;;24.70;;
46439;SDS011;32138;50.966;6.968;2022-12-10T00:41:16;32.20;;;24.90;;
46439;SDS011;32138;50.966;6.968;2022-12-10T00:42:17;35.35;;;26.48;;
46439;SDS011;32138;50.966;6.968;2022-12-10T00:43:18;31.35;;;24.73;;
46439;SDS011;32138;50.966;6.968;2022-12-10T00:44:18;33.35;;;25.10;;
46439;SDS011;32138;50.966;6.968;2022-12-10T00:45:19;31.13;;;24.98;;
46439;SDS011;32138;50.966;6.968;2022-12-10T00:46:20;35.30;;;25.55;;
46439;SDS011;32138;50.966;6.968;2022-12-10T00:47:21;30.80;;;24.73;;
46439;SDS011;32138;50.966;6.968;2022-12-10T00:48:22;31.50;;;23.88;;
46439;SDS011;32138;50.966;6.968;2022-12-10T00:49:23;28.88;;;23.15;;
46439;SDS011;32138;50.966;6.968;2022-12-10T00:50:24;32.30;;;24.73;;
46439;SDS011;32138;50.966;6.968;2022-12-10T00:51:25;34.55;;;26.33;;
46439;SDS011;32138;50.966;6.968;2022-12-10T00:52:27;32.55;;;24.65;;
46439;SDS011;32138;50.966;6.968;2022-12-10T00:53:29;30.23;;;23.73;;
46439;SDS011;32138;50.966;6.968;2022-12-10T00:54:32;34.30;;;25.15;;
46439;SDS011;32138;50.966;6.968;2022-12-10T00:55:33;32.63;;;24.40;;
46439;SDS011;32138;50.966;6.968;2022-12-10T00:56:34;32.28;;;24.35;;
46439;SDS011;32138;50.966;6.968;2022-12-10T00:57:35;33.00;;;25.00;;
46439;SDS011;32138;50.966;6.968;2022-12-10T00:58:37;33.13;;;24.65;;
46439;SDS011;32138;50.966;6.968;2022-12-10T00:59:38;29.92;;;23.15;;
46439;SDS011;32138;50.966;6.968;2022-12-10T01:00:39;33.88;;;25.55;;
46439;SDS011;32138;50.966;6.968;2022-12-10T01:01:41;30.42;;;23.60;;
46439;SDS011;32138;50.966;6.968;2022-12-10T01:02:42;32.03;;;23.48;;
46439;SDS011;32138;50.966;6.968;2022-12-10T01:03:44;33.08;;;24.67;;
46439;SDS011;32138;50.966;6.968;2022-12-10T01:04:46;31.38;;;24.55;;
46439;SDS011;32138;50.966;6.968;2022-12-10T01:05:46;33.42;;;25.80;;
46439;SDS011;32138;50.966;6.968;2022-12-10T01:06:48;30.77;;;23.48;;
46439;SDS011;32138;50.966;6.968;2022-12-10T01:07:51;34.67;;;25.98;;
46439;SDS011;32138;50.966;6.968;2022-12-10T01:08:54;30.70;;;23.65;;
46439;SDS011;32138;50.966;6.968;2022-12-10T01:09:58;29.73;;;22.35;;
46439;SDS011;32138;50.966;6.968;2022-12-10T01:10:59;31.88;;;23.10;;
46439;SDS011;32138;50.966;6.968;2022-12-10T01:12:01;29.88;;;24.13;;
46439;SDS011;32138;50.966;6.968;2022-12-10T01:13:03;30.38;;;23.92;;
46439;SDS011;32138;50.966;6.968;2022-12-10T01:14:05;31.33;;;23.98;;
46439;SDS011;32138;50.966;6.968;2022-12-10T01:15:10;32.72;;;23.25;;
46439;SDS011;32138;50.966;6.968;2022-12-10T01:16:12;28.67;;;22.35;;
46439;SDS011;32138;50.966;6.968;2022-12-10T01:17:15;31.80;;;23.35;;
46439;SDS011;32138;50.966;6.968;2022-12-10T01:18:16;30.52;;;23.17;;
46439;SDS011;32138;50.966;6.968;2022-12-10T01:19:16;32.85;;;24.02;;
46439;SDS011;32138;50.966;6.968;2022-12-10T01:20:17;31.38;;;23.67;;
46439;SDS011;32138;50.966;6.968;2022-12-10T01:21:18;29.60;;;22.63;;
46439;SDS011;32138;50.966;6.968;2022-12-10T01:22:20;32.40;;;24.15;;
46439;SDS011;32138;50.966;6.968;2022-12-10T01:23:21;32.30;;;23.90;;
46439;SDS011;32138;50.966;6.968;2022-12-10T01:24:22;31.23;;;22.55;;
46439;SDS011;32138;50.966;6.968;2022-12-10T01:25:25;31.35;;;23.88;;
46439;SDS011;32138;50.966;6.968;2022-12-10T01:26:27;30.80;;;22.83;;
46439;SDS011;32138;50.966;6.968;2022-12-10T01:27:30;28.55;;;22.08;;
46439;SDS011;32138;50.966;6.968;2022-12-10T01:28:32;30.98;;;22.60;;
46439;SDS011;32138;50.966;6.968;2022-12-10T01:29:34;30.75;;;23.02;;
46439;SDS011;32138;50.966;6.968;2022-12-10T01:30:35;29.60;;;22.83;;
46439;SDS011;32138;50.966;6.968;2022-12-10T01:31:36;28.60;;;21.17;;
46439;SDS011;32138;50.966;6.968;2022-12-10T01:32:37;31.75;;;23.00;;
46439;SDS011;32138;50.966;6.968;2022-12-10T01:33:38;31.02;;;22.25;;
46439;SDS011;32138;50.966;6.968;2022-12-10T01:34:39;28.90;;;22.48;;
46439;SDS011;32138;50.966;6.968;2022-12-10T01:35:40;27.20;;;21.77;;
46439;SDS011;32138;50.966;6.968;2022-12-10T01:36:42;28.83;;;22.95;;
46439;SDS011;32138;50.966;6.968;2022-12-10T01:37:44;28.42;;;21.52;;
46439;SDS011;32138;50.966;6.968;2022-12-10T01:38:45;30.90;;;23.70;;
46439;SDS011;32138;50.966;6.968;2022-12-10T01:39:46;31.38;;;22.75;;
46439;SDS011;32138;50.966;6.968;2022-12-10T01:40:47;30.65;;;22.88;;
46439;SDS011;32138;50.966;6.968;2022-12-10T01:42:55;31.98;;;23.42;;
46439;SDS011;32138;50.966;6.968;2022-12-10T01:45:25;28.80;;;21.77;;
46439;SDS011;32138;50.966;6.968;2022-12-10T01:46:33;33.97;;;24.98;;
46439;SDS011;32138;50.966;6.968;2022-12-10T01:47:36;26.92;;;22.00;;
46439;SDS011;32138;50.966;6.968;2022-12-10T01:48:37;29.38;;;22.50;;
46439;SDS011;32138;50.966;6.968;2022-12-10T01:49:39;32.50;;;22.90;;
46439;SDS011;32138;50.966;6.968;2022-12-10T01:50:40;33.40;;;23.38;;
46439;SDS011;32138;50.966;6.968;2022-12-10T01:51:42;34.33;;;23.52;;
46439;SDS011;32138;50.966;6.968;2022-12-10T01:52:44;32.22;;;23.17;;
46439;SDS011;32138;50.966;6.968;2022-12-10T01:53:46;28.83;;;21.83;;
46439;SDS011;32138;50.966;6.968;2022-12-10T01:54:47;32.10;;;23.40;;
46439;SDS011;32138;50.966;6.968;2022-12-10T01:55:49;32.65;;;24.45;;
46439;SDS011;32138;50.966;6.968;2022-12-10T01:56:52;33.72;;;24.05;;
46439;SDS011;32138;50.966;6.968;2022-12-10T01:58:21;35.20;;;25.13;;
46439;SDS011;32138;50.966;6.968;2022-12-10T01:59:22;33.55;;;24.25;;
46439;SDS011;32138;50.966;6.968;2022-12-10T02:00:25;29.85;;;23.40;;
46439;SDS011;32138;50.966;6.968;2022-12-10T02:01:34;31.75;;;24.23;;
46439;SDS011;32138;50.966;6.968;2022-12-10T02:02:56;41.63;;;31.67;;
46439;SDS011;32138;50.966;6.968;2022-12-10T02:06:00;39.33;;;27.65;;
46439;SDS011;32138;50.966;6.968;2022-12-10T02:08:28;33.65;;;24.58;;
46439;SDS011;32138;50.966;6.968;2022-12-10T02:12:32;31.38;;;22.40;;
46439;SDS011;32138;50.966;6.968;2022-12-10T02:14:14;32.75;;;21.92;;
46439;SDS011;32138;50.966;6.968;2022-12-10T02:15:29;31.20;;;22.90;;
46439;SDS011;32138;50.966;6.968;2022-12-10T02:16:37;29.90;;;22.30;;
46439;SDS011;32138;50.966;6.968;2022-12-10T02:18:04;34.85;;;24.05;;
46439;SDS011;32138;50.966;6.968;2022-12-10T02:20:41;32.35;;;23.55;;
46439;SDS011;32138;50.966;6.968;2022-12-10T02:21:49;30.52;;;22.08;;
46439;SDS011;32138;50.966;6.968;2022-12-10T02:22:54;30.35;;;22.55;;
46439;SDS011;32138;50.966;6.968;2022-12-10T02:24:07;33.33;;;22.50;;
46439;SDS011;32138;50.966;6.968;2022-12-10T02:25:12;30.30;;;22.73;;
46439;SDS011;32138;50.966;6.968;2022-12-10T02:26:40;30.38;;;22.20;;
46439;SDS011;32138;50.966;6.968;2022-12-10T02:28:21;30.02;;;22.35;;
46439;SDS011;32138;50.966;6.968;2022-12-10T02:29:36;31.48;;;23.05;;
46439;SDS011;32138;50.966;6.968;2022-12-10T02:30:38;31.38;;;23.50;;
46439;SDS011;32138;50.966;6.968;2022-12-10T02:31:42;32.90;;;23.27;;
46439;SDS011;32138;50.966;6.968;2022-12-10T02:32:48;28.55;;;21.38;;
46439;SDS011;32138;50.966;6.968;2022-12-10T02:33:51;32.25;;;23.83;;
46439;SDS011;32138;50.966;6.968;2022-12-10T02:34:58;32.42;;;23.02;;
46439;SDS011;32138;50.966;6.968;2022-12-10T02:36:04;29.55;;;21.80;;
46439;SDS011;32138;50.966;6.968;2022-12-10T02:37:16;33.08;;;23.80;;
46439;SDS011;32138;50.966;6.968;2022-12-10T02:38:25;33.47;;;23.13;;
46439;SDS011;32138;50.966;6.968;2022-12-10T02:39:32;32.30;;;23.88;;
46439;SDS011;32138;50.966;6.968;2022-12-10T02:40:39;30.40;;;22.08;;
46439;SDS011;32138;50.966;6.968;2022-12-10T02:41:48;30.15;;;22.35;;
46439;SDS011;32138;50.966;6.968;2022-12-10T02:42:53;29.73;;;21.98;;
46439;SDS011;32138;50.966;6.968;2022-12-10T02:43:54;31.60;;;22.90;;
46439;SDS011;32138;50.966;6.968;2022-12-10T02:44:58;31.52;;;22.40;;
46439;SDS011;32138;50.966;6.968;2022-12-10T02:46:01;31.10;;;23.60;;
46439;SDS011;32138;50.966;6.968;2022-12-10T02:47:04;32.22;;;24.63;;
46439;SDS011;32138;50.966;6.968;2022-12-10T02:48:06;32.22;;;22.75;;
46439;SDS011;32138;50.966;6.968;2022-12-10T02:49:07;30.02;;;22.52;;
46439;SDS011;32138;50.966;6.968;2022-12-10T02:50:12;29.75;;;22.25;;
46439;SDS011;32138;50.966;6.968;2022-12-10T02:51:16;29.17;;;21.85;;
46439;SDS011;32138;50.966;6.968;2022-12-10T02:52:17;30.25;;;23.13;;
46439;SDS011;32138;50.966;6.968;2022-12-10T02:53:19;29.50;;;22.25;;
46439;SDS011;32138;50.966;6.968;2022-12-10T02:54:34;30.58;;;23.10;;
46439;SDS011;32138;50.966;6.968;2022-12-10T02:58:37;31.10;;;22.67;;
46439;SDS011;32138;50.966;6.968;2022-12-10T03:00:11;30.38;;;21.50;;
46439;SDS011;32138;50.966;6.968;2022-12-10T03:01:34;29.92;;;21.33;;
46439;SDS011;32138;50.966;6.968;2022-12-10T03:03:15;28.63;;;20.80;;
46439;SDS011;32138;50.966;6.968;2022-12-10T03:06:03;29.90;;;21.42;;
46439;SDS011;32138;50.966;6.968;2022-12-10T03:07:16;30.05;;;21.17;;
46439;SDS011;32138;50.966;6.968;2022-12-10T03:08:27;29.20;;;21.27;;
46439;SDS011;32138;50.966;6.968;2022-12-10T03:09:39;30.67;;;22.05;;
46439;SDS011;32138;50.966;6.968;2022-12-10T03:11:54;35.25;;;23.33;;
46439;SDS011;32138;50.966;6.968;2022-12-10T03:13:03;33.42;;;23.83;;
46439;SDS011;32138;50.966;6.968;2022-12-10T03:14:12;31.85;;;23.17;;
46439;SDS011;32138;50.966;6.968;2022-12-10T03:15:19;32.22;;;22.05;;
46439;SDS011;32138;50.966;6.968;2022-12-10T03:16:23;31.40;;;23.08;;
46439;SDS011;32138;50.966;6.968;2022-12-10T03:17:28;32.33;;;23.58;;
46439;SDS011;32138;50.966;6.968;2022-12-10T03:18:34;29.88;;;21.92;;
46439;SDS011;32138;50.966;6.968;2022-12-10T03:19:39;29.20;;;22.33;;
46439;SDS011;32138;50.966;6.968;2022-12-10T03:20:45;32.00;;;23.30;;
46439;SDS011;32138;50.966;6.968;2022-12-10T03:21:47;30.15;;;21.80;;
46439;SDS011;32138;50.966;6.968;2022-12-10T03:22:50;32.50;;;21.17;;
46439;SDS011;32138;50.966;6.968;2022-12-10T03:23:52;30.92;;;21.60;;
46439;SDS011;32138;50.966;6.968;2022-12-10T03:24:53;27.98;;;21.38;;
46439;SDS011;32138;50.966;6.968;2022-12-10T03:25:54;32.20;;;22.92;;
46439;SDS011;32138;50.966;6.968;2022-12-10T03:26:55;32.58;;;23.08;;
46439;SDS011;32138;50.966;6.968;2022-12-10T03:27:58;29.95;;;22.52;;
46439;SDS011;32138;50.966;6.968;2022-12-10T03:29:01;30.77;;;22.60;;
46439;SDS011;32138;50.966;6.968;2022-12-10T03:30:08;31.80;;;23.05;;
46439;SDS011;32138;50.966;6.968;2022-12-10T03:31:09;33.92;;;24.38;;
46439;SDS011;32138;50.966;6.968;2022-12-10T03:32:12;29.52;;;22.83;;
46439;SDS011;32138;50.966;6.968;2022-12-10T03:33:14;30.60;;;23.17;;
46439;SDS011;32138;50.966;6.968;2022-12-10T03:34:16;30.90;;;22.10;;
46439;SDS011;32138;50.966;6.968;2022-12-10T03:35:17;29.80;;;23.10;;
46439;SDS011;32138;50.966;6.968;2022-12-10T03:36:20;30.52;;;21.88;;
46439;SDS011;32138;50.966;6.968;2022-12-10T03:37:23;32.15;;;23.73;;
46439;SDS011;32138;50.966;6.968;2022-12-10T03:38:25;28.65;;;21.85;;
46439;SDS011;32138;50.966;6.968;2022-12-10T03:39:26;27.42;;;21.38;;
46439;SDS011;32138;50.966;6.968;2022-12-10T03:40:28;27.85;;;21.40;;
46439;SDS011;32138;50.966;6.968;2022-12-10T03:41:29;27.75;;;21.50;;
46439;SDS011;32138;50.966;6.968;2022-12-10T03:42:30;30.70;;;22.58;;
46439;SDS011;32138;50.966;6.968;2022-12-10T03:43:30;29.85;;;22.50;;
46439;SDS011;32138;50.966;6.968;2022-12-10T03:44:32;29.38;;;22.13;;
46439;SDS011;32138;50.966;6.968;2022-12-10T03:45:35;29.83;;;22.55;;
46439;SDS011;32138;50.966;6.968;2022-12-10T03:46:36;26.45;;;19.95;;
46439;SDS011;32138;50.966;6.968;2022-12-10T03:47:37;27.23;;;20.73;;
46439;SDS011;32138;50.966;6.968;2022-12-10T03:48:37;28.98;;;21.83;;
46439;SDS011;32138;50.966;6.968;2022-12-10T03:49:38;30.33;;;22.02;;
46439;SDS011;32138;50.966;6.968;2022-12-10T03:50:39;33.25;;;23.17;;
46439;SDS011;32138;50.966;6.968;2022-12-10T03:51:40;28.38;;;21.65;;
46439;SDS011;32138;50.966;6.968;2022-12-10T03:52:40;29.60;;;22.85;;
46439;SDS011;32138;50.966;6.968;2022-12-10T03:53:41;31.00;;;23.27;;
46439;SDS011;32138;50.966;6.968;2022-12-10T03:54:42;29.95;;;22.05;;
46439;SDS011;32138;50.966;6.968;2022-12-10T03:55:43;30.42;;;22.23;;
46439;SDS011;32138;50.966;6.968;2022-12-10T03:56:44;28.95;;;22.30;;
46439;SDS011;32138;50.966;6.968;2022-12-10T03:57:44;31.55;;;23.08;;
46439;SDS011;32138;50.966;6.968;2022-12-10T03:58:45;32.22;;;22.95;;
46439;SDS011;32138;50.966;6.968;2022-12-10T03:59:47;31.35;;;23.38;;
46439;SDS011;32138;50.966;6.968;2022-12-10T04:00:48;29.25;;;22.33;;
46439;SDS011;32138;50.966;6.968;2022-12-10T04:01:48;30.92;;;22.90;;
46439;SDS011;32138;50.966;6.968;2022-12-10T04:02:49;35.05;;;23.48;;
46439;SDS011;32138;50.966;6.968;2022-12-10T04:03:50;31.45;;;23.35;;
46439;SDS011;32138;50.966;6.968;2022-12-10T04:04:51;30.70;;;23.55;;
46439;SDS011;32138;50.966;6.968;2022-12-10T04:05:51;33.17;;;23.25;;
46439;SDS011;32138;50.966;6.968;2022-12-10T04:06:52;33.20;;;23.15;;
46439;SDS011;32138;50.966;6.968;2022-12-10T04:07:53;33.30;;;23.33;;
46439;SDS011;32138;50.966;6.968;2022-12-10T04:08:53;34.20;;;25.58;;
46439;SDS011;32138;50.966;6.968;2022-12-10T04:09:54;38.58;;;24.88;;
46439;SDS011;32138;50.966;6.968;2022-12-10T04:11:00;30.75;;;22.10;;
46439;SDS011;32138;50.966;6.968;2022-12-10T04:12:06;36.67;;;24.88;;
46439;SDS011;32138;50.966;6.968;2022-12-10T04:13:07;32.72;;;23.85;;
46439;SDS011;32138;50.966;6.968;2022-12-10T04:14:27;34.95;;;24.15;;
46439;SDS011;32138;50.966;6.968;2022-12-10T04:15:46;33.47;;;23.85;;
46439;SDS011;32138;50.966;6.968;2022-12-10T04:17:05;33.83;;;23.40;;
46439;SDS011;32138;50.966;6.968;2022-12-10T04:18:06;34.60;;;25.30;;
46439;SDS011;32138;50.966;6.968;2022-12-10T04:19:08;39.40;;;26.15;;
46439;SDS011;32138;50.966;6.968;2022-12-10T04:20:12;39.55;;;27.27;;
46439;SDS011;32138;50.966;6.968;2022-12-10T04:21:34;34.38;;;23.70;;
46439;SDS011;32138;50.966;6.968;2022-12-10T04:22:55;36.47;;;24.48;;
46439;SDS011;32138;50.966;6.968;2022-12-10T04:24:16;38.35;;;25.25;;
46439;SDS011;32138;50.966;6.968;2022-12-10T04:25:39;36.13;;;25.42;;
46439;SDS011;32138;50.966;6.968;2022-12-10T04:26:59;39.28;;;26.85;;
46439;SDS011;32138;50.966;6.968;2022-12-10T04:28:05;37.35;;;26.45;;
46439;SDS011;32138;50.966;6.968;2022-12-10T04:29:06;37.22;;;25.58;;
46439;SDS011;32138;50.966;6.968;2022-12-10T04:30:10;38.15;;;27.30;;
46439;SDS011;32138;50.966;6.968;2022-12-10T04:31:12;34.70;;;25.23;;
46439;SDS011;32138;50.966;6.968;2022-12-10T04:32:12;35.90;;;25.95;;
46439;SDS011;32138;50.966;6.968;2022-12-10T04:33:14;38.95;;;26.98;;
46439;SDS011;32138;50.966;6.968;2022-12-10T04:34:14;34.67;;;25.85;;
46439;SDS011;32138;50.966;6.968;2022-12-10T04:35:15;37.95;;;25.67;;
46439;SDS011;32138;50.966;6.968;2022-12-10T04:36:16;35.30;;;25.17;;
46439;SDS011;32138;50.966;6.968;2022-12-10T04:37:17;34.58;;;26.10;;
46439;SDS011;32138;50.966;6.968;2022-12-10T04:38:19;36.10;;;26.60;;
46439;SDS011;32138;50.966;6.968;2022-12-10T04:39:20;37.33;;;25.35;;
46439;SDS011;32138;50.966;6.968;2022-12-10T04:40:21;34.55;;;23.98;;
46439;SDS011;32138;50.966;6.968;2022-12-10T04:41:22;37.15;;;26.40;;
46439;SDS011;32138;50.966;6.968;2022-12-10T04:42:22;40.58;;;28.70;;
46439;SDS011;32138;50.966;6.968;2022-12-10T04:43:23;38.50;;;27.08;;
46439;SDS011;32138;50.966;6.968;2022-12-10T04:44:24;38.17;;;26.40;;
46439;SDS011;32138;50.966;6.968;2022-12-10T04:45:24;39.75;;;27.05;;
46439;SDS011;32138;50.966;6.968;2022-12-10T04:46:25;39.03;;;25.98;;
46439;SDS011;32138;50.966;6.968;2022-12-10T04:47:27;35.65;;;26.25;;
46439;SDS011;32138;50.966;6.968;2022-12-10T04:48:28;36.42;;;25.42;;
46439;SDS011;32138;50.966;6.968;2022-12-10T04:49:29;33.88;;;24.83;;
46439;SDS011;32138;50.966;6.968;2022-12-10T04:50:29;39.50;;;27.20;;
46439;SDS011;32138;50.966;6.968;2022-12-10T04:51:30;37.75;;;26.30;;
46439;SDS011;32138;50.966;6.968;2022-12-10T04:52:31;39.30;;;27.08;;
46439;SDS011;32138;50.966;6.968;2022-12-10T04:53:32;40.20;;;25.98;;
46439;SDS011;32138;50.966;6.968;2022-12-10T04:54:33;37.67;;;26.63;;
46439;SDS011;32138;50.966;6.968;2022-12-10T04:55:34;41.40;;;27.90;;
46439;SDS011;32138;50.966;6.968;2022-12-10T04:56:35;40.72;;;27.20;;
46439;SDS011;32138;50.966;6.968;2022-12-10T04:57:36;38.75;;;26.63;;
46439;SDS011;32138;50.966;6.968;2022-12-10T04:58:37;43.97;;;29.25;;
46439;SDS011;32138;50.966;6.968;2022-12-10T04:59:38;41.08;;;27.38;;
46439;SDS011;32138;50.966;6.968;2022-12-10T05:00:39;40.33;;;27.95;;
46439;SDS011;32138;50.966;6.968;2022-12-10T05:01:39;37.42;;;26.42;;
46439;SDS011;32138;50.966;6.968;2022-12-10T05:02:40;37.00;;;26.55;;
46439;SDS011;32138;50.966;6.968;2022-12-10T05:03:41;44.28;;;27.85;;
46439;SDS011;32138;50.966;6.968;2022-12-10T05:04:42;41.10;;;27.98;;
46439;SDS011;32138;50.966;6.968;2022-12-10T05:05:42;38.13;;;27.10;;
46439;SDS011;32138;50.966;6.968;2022-12-10T05:06:44;39.65;;;27.60;;
46439;SDS011;32138;50.966;6.968;2022-12-10T05:07:47;40.15;;;27.70;;
46439;SDS011;32138;50.966;6.968;2022-12-10T05:08:47;39.70;;;27.20;;
46439;SDS011;32138;50.966;6.968;2022-12-10T05:09:48;44.88;;;30.08;;
46439;SDS011;32138;50.966;6.968;2022-12-10T05:10:49;41.13;;;28.17;;
46439;SDS011;32138;50.966;6.968;2022-12-10T05:11:50;41.28;;;27.90;;
46439;SDS011;32138;50.966;6.968;2022-12-10T05:12:50;40.72;;;27.38;;
46439;SDS011;32138;50.966;6.968;2022-12-10T05:13:54;43.13;;;30.55;;
46439;SDS011;32138;50.966;6.968;2022-12-10T05:14:56;44.17;;;29.25;;
46439;SDS011;32138;50.966;6.968;2022-12-10T05:15:56;42.08;;;28.65;;
46439;SDS011;32138;50.966;6.968;2022-12-10T05:16:57;40.40;;;27.20;;
46439;SDS011;32138;50.966;6.968;2022-12-10T05:17:58;41.95;;;29.35;;
46439;SDS011;32138;50.966;6.968;2022-12-10T05:18:59;41.28;;;29.10;;
46439;SDS011;32138;50.966;6.968;2022-12-10T05:20:00;44.10;;;28.35;;
46439;SDS011;32138;50.966;6.968;2022-12-10T05:21:02;45.88;;;29.65;;
46439;SDS011;32138;50.966;6.968;2022-12-10T05:22:09;39.17;;;28.80;;
46439;SDS011;32138;50.966;6.968;2022-12-10T05:23:28;42.50;;;27.55;;
46439;SDS011;32138;50.966;6.968;2022-12-10T05:24:29;44.22;;;29.92;;
46439;SDS011;32138;50.966;6.968;2022-12-10T05:25:30;43.70;;;28.60;;
46439;SDS011;32138;50.966;6.968;2022-12-10T05:26:31;47.67;;;30.58;;
46439;SDS011;32138;50.966;6.968;2022-12-10T05:27:32;45.63;;;30.63;;
46439;SDS011;32138;50.966;6.968;2022-12-10T05:28:38;39.45;;;27.60;;
46439;SDS011;32138;50.966;6.968;2022-12-10T05:29:48;41.95;;;28.10;;
46439;SDS011;32138;50.966;6.968;2022-12-10T05:30:48;38.95;;;27.65;;
46439;SDS011;32138;50.966;6.968;2022-12-10T05:31:49;43.17;;;29.17;;
46439;SDS011;32138;50.966;6.968;2022-12-10T05:32:50;44.15;;;29.17;;
46439;SDS011;32138;50.966;6.968;2022-12-10T05:33:51;41.65;;;28.45;;
46439;SDS011;32138;50.966;6.968;2022-12-10T05:34:54;46.08;;;29.73;;
46439;SDS011;32138;50.966;6.968;2022-12-10T05:36:01;43.58;;;28.50;;
46439;SDS011;32138;50.966;6.968;2022-12-10T05:37:03;42.50;;;29.02;;
46439;SDS011;32138;50.966;6.968;2022-12-10T05:38:04;45.17;;;29.75;;
46439;SDS011;32138;50.966;6.968;2022-12-10T05:39:05;46.38;;;30.83;;
46439;SDS011;32138;50.966;6.968;2022-12-10T05:40:06;44.35;;;29.02;;
46439;SDS011;32138;50.966;6.968;2022-12-10T05:41:12;46.28;;;30.23;;
46439;SDS011;32138;50.966;6.968;2022-12-10T05:42:14;41.55;;;28.17;;
46439;SDS011;32138;50.966;6.968;2022-12-10T05:43:14;41.75;;;28.92;;
46439;SDS011;32138;50.966;6.968;2022-12-10T05:44:15;44.20;;;29.33;;
46439;SDS011;32138;50.966;6.968;2022-12-10T05:45:16;44.88;;;29.90;;
46439;SDS011;32138;50.966;6.968;2022-12-10T05:46:20;43.95;;;30.25;;
46439;SDS011;32138;50.966;6.968;2022-12-10T05:47:26;45.28;;;29.33;;
46439;SDS011;32138;50.966;6.968;2022-12-10T05:48:26;48.50;;;32.53;;
46439;SDS011;32138;50.966;6.968;2022-12-10T05:49:27;45.50;;;31.05;;
46439;SDS011;32138;50.966;6.968;2022-12-10T05:50:30;45.95;;;31.77;;
46439;SDS011;32138;50.966;6.968;2022-12-10T05:51:32;44.13;;;28.88;;
46439;SDS011;32138;50.966;6.968;2022-12-10T05:52:36;46.97;;;30.25;;
46439;SDS011;32138;50.966;6.968;2022-12-10T05:53:37;47.17;;;29.35;;
46439;SDS011;32138;50.966;6.968;2022-12-10T05:54:38;43.33;;;29.70;;
46439;SDS011;32138;50.966;6.968;2022-12-10T05:55:39;41.92;;;28.85;;
46439;SDS011;32138;50.966;6.968;2022-12-10T05:56:40;46.85;;;31.38;;
46439;SDS011;32138;50.966;6.968;2022-12-10T05:57:41;44.85;;;28.65;;
46439;SDS011;32138;50.966;6.968;2022-12-10T05:58:42;48.78;;;32.53;;
46439;SDS011;32138;50.966;6.968;2022-12-10T05:59:44;43.47;;;28.40;;
46439;SDS011;32138;50.966;6.968;2022-12-10T06:00:45;41.28;;;29.77;;
46439;SDS011;32138;50.966;6.968;2022-12-10T06:01:46;47.25;;;30.13;;
46439;SDS011;32138;50.966;6.968;2022-12-10T06:02:46;42.75;;;28.75;;
46439;SDS011;32138;50.966;6.968;2022-12-10T06:03:47;40.80;;;29.10;;
46439;SDS011;32138;50.966;6.968;2022-12-10T06:04:50;48.00;;;30.45;;
46439;SDS011;32138;50.966;6.968;2022-12-10T06:05:50;45.80;;;31.42;;
46439;SDS011;32138;50.966;6.968;2022-12-10T06:06:51;45.55;;;30.25;;
46439;SDS011;32138;50.966;6.968;2022-12-10T06:07:52;42.28;;;28.67;;
46439;SDS011;32138;50.966;6.968;2022-12-10T06:08:52;42.17;;;29.38;;
46439;SDS011;32138;50.966;6.968;2022-12-10T06:09:54;46.33;;;30.27;;
46439;SDS011;32138;50.966;6.968;2022-12-10T06:10:55;48.35;;;30.55;;
46439;SDS011;32138;50.966;6.968;2022-12-10T06:11:58;48.70;;;30.30;;
46439;SDS011;32138;50.966;6.968;2022-12-10T06:12:58;43.97;;;28.90;;
46439;SDS011;32138;50.966;6.968;2022-12-10T06:13:59;48.70;;;31.33;;
46439;SDS011;32138;50.966;6.968;2022-12-10T06:15:01;46.53;;;32.17;;
46439;SDS011;32138;50.966;6.968;2022-12-10T06:16:06;45.70;;;29.88;;
46439;SDS011;32138;50.966;6.968;2022-12-10T06:17:10;43.00;;;28.33;;
46439;SDS011;32138;50.966;6.968;2022-12-10T06:18:11;45.88;;;29.52;;
46439;SDS011;32138;50.966;6.968;2022-12-10T06:19:12;47.03;;;30.85;;
46439;SDS011;32138;50.966;6.968;2022-12-10T06:20:13;45.53;;;31.58;;
46439;SDS011;32138;50.966;6.968;2022-12-10T06:21:14;43.78;;;29.73;;
46439;SDS011;32138;50.966;6.968;2022-12-10T06:22:16;47.38;;;31.75;;
46439;SDS011;32138;50.966;6.968;2022-12-10T06:23:17;49.30;;;31.80;;
46439;SDS011;32138;50.966;6.968;2022-12-10T06:24:18;43.03;;;30.00;;
46439;SDS011;32138;50.966;6.968;2022-12-10T06:25:18;44.45;;;30.23;;
46439;SDS011;32138;50.966;6.968;2022-12-10T06:26:20;49.85;;;31.10;;
46439;SDS011;32138;50.966;6.968;2022-12-10T06:27:24;49.13;;;33.95;;